Aérodrome :
LOGIN :

S'inscrire | Disclaimer

   EN    FR    IT 

 










Légende :    VFR   VFR Marginal   IFR   IFR Intensif   IFR Très Intensif
Visi : 
Plafond : 
>= 8 km
>= 3000ft
5 à 8 km
1000 à 3000 ft
1500m à 5 km
500 à 1000 ft
800 à 1500m
200 à 500 ft
< 800m
< 200 ft
Symboles :   Orages  Brouillard  Fortes neiges  Fortes précipitations  Vent > 20 kt
SIGMETs :   Divers  Orages  Givrage  Turbulence  Onde Orograph.  Cendres Volcan.







- Altitude de l'aérodrome : 278 ft
- Code IATA : RJK


LDRI - Rijeka

DERNIER METAR :
  • 210300Z 05011KT CAVOK 04/M04 Q1016

METARs EXPIRÉS :
  • 210230Z 05011KT CAVOK 04/M04 Q1016
  • 210200Z 04011KT CAVOK 04/M04 Q1016
  • 210130Z 05012KT CAVOK 04/M04 Q1016
  • 210100Z 06013KT CAVOK 04/M03 Q1016
  • 210030Z 05011KT CAVOK 04/M03 Q1016

TAF TAF LDRI
Valide du 21 à 00h jusqu'au 22 à 00h UTC


202325Z 2100/2200 06015KT 9999 SCT050 TX06/2113Z TN03/2105Z
PROB40
TEMPO 2118/2200 4000 -RA
Pas de NOTAMs connus pour ce terrain.



MET'MAP, la Météo Aéronautique d'un coup d'oeil ! - Copyright ORBIFLY Décembre 2007 - Disclaimer

ORBIFLY MET'MAP TEAM :

Programmation & Développement : Alexandra Zaïnal
Conception & Développement : Baudouin d'Aumeries
Co-Programmation & Développement : Marc-Olivier Méhu
Soutien technique & logistique : Manuel Goepfert

Contact : metmap@orbifly.com




SOURCES & CREDITS :

   NOAA